createdAt,value
2024-04-13T00:01:25.438Z,67.28
2024-04-13T00:04:11.892Z,67.28
2024-04-13T00:06:57.863Z,67.23
2024-04-13T00:09:44.337Z,67.38
2024-04-13T00:12:30.572Z,67.28
2024-04-13T00:15:17.133Z,67.52
2024-04-13T00:18:03.300Z,67.99
2024-04-13T00:20:49.381Z,67.82
2024-04-13T00:23:35.711Z,67.46
2024-04-13T00:26:26.195Z,68.01
2024-04-13T00:29:12.451Z,68.19
2024-04-13T00:31:58.502Z,68.76
2024-04-13T00:34:44.694Z,68.56
2024-04-13T00:37:33.870Z,68.80
2024-04-13T00:40:20.659Z,68.59
2024-04-13T00:43:13.799Z,68.58
2024-04-13T00:46:08.440Z,68.70
2024-04-13T00:48:55.675Z,68.55
2024-04-13T00:51:45.463Z,68.58
2024-04-13T00:54:33.595Z,68.54
2024-04-13T00:57:20.235Z,68.72
2024-04-13T01:00:07.456Z,68.89
2024-04-13T01:02:53.739Z,68.86
2024-04-13T01:05:40.267Z,68.95
2024-04-13T01:08:29.424Z,68.94
2024-04-13T01:11:15.847Z,68.76
2024-04-13T01:14:02.767Z,68.86
2024-04-13T01:16:49.022Z,69.26
2024-04-13T01:19:35.649Z,69.31
2024-04-13T01:22:22.952Z,69.17
2024-04-13T01:25:11.032Z,68.96
2024-04-13T01:27:57.443Z,69.34
2024-04-13T01:30:43.587Z,69.12
2024-04-13T01:33:30.087Z,69.07
2024-04-13T01:36:16.225Z,69.19
2024-04-13T01:39:02.119Z,69.16
2024-04-13T01:41:54.725Z,69.11
2024-04-13T01:44:40.529Z,69.31
2024-04-13T01:47:26.841Z,69.30
2024-04-13T01:50:14.125Z,69.17
2024-04-13T01:53:00.484Z,69.25
2024-04-13T01:55:47.981Z,69.39
2024-04-13T01:58:34.059Z,69.67
2024-04-13T02:01:20.059Z,69.51
2024-04-13T02:04:07.581Z,69.81
2024-04-13T02:06:53.781Z,70.66
2024-04-13T02:09:40.286Z,69.74
2024-04-13T02:12:27.035Z,69.82
2024-04-13T02:15:13.086Z,69.78
2024-04-13T02:17:59.183Z,69.88
2024-04-13T02:20:46.248Z,69.98
2024-04-13T02:23:32.445Z,70.08
2024-04-13T02:26:18.559Z,69.87
2024-04-13T02:29:04.585Z,69.89
2024-04-13T02:31:50.632Z,70.13
2024-04-13T02:34:36.697Z,70.64
2024-04-13T02:37:24.204Z,70.18
2024-04-13T02:40:10.726Z,70.47
2024-04-13T02:42:59.023Z,70.42
2024-04-13T02:45:45.361Z,70.55
2024-04-13T02:48:31.730Z,70.73
2024-04-13T02:51:18.741Z,70.46
2024-04-13T02:54:06.256Z,70.68
2024-04-13T02:56:55.743Z,70.69
2024-04-13T02:59:41.983Z,70.93
2024-04-13T03:02:28.257Z,70.80
2024-04-13T03:05:15.531Z,70.58
2024-04-13T03:08:01.631Z,70.72
2024-04-13T03:10:55.947Z,70.67
2024-04-13T03:13:42.396Z,70.90
2024-04-13T03:16:28.276Z,70.99
2024-04-13T03:19:14.192Z,70.98
2024-04-13T03:22:00.537Z,70.84
2024-04-13T03:24:46.578Z,70.88
2024-04-13T03:27:34.471Z,70.94
2024-04-13T03:30:20.875Z,71.12
2024-04-13T03:33:07.987Z,71.25
2024-04-13T03:35:54.296Z,71.27
2024-04-13T03:38:40.246Z,71.46
2024-04-13T03:41:26.371Z,71.57
2024-04-13T03:44:13.068Z,71.22
2024-04-13T03:46:59.397Z,71.56
2024-04-13T03:49:46.085Z,71.54
2024-04-13T03:52:32.342Z,71.42
2024-04-13T03:55:18.473Z,71.45
2024-04-13T03:58:05.087Z,71.75
2024-04-13T04:00:51.318Z,71.84
2024-04-13T04:03:37.626Z,71.90
2024-04-13T04:06:23.648Z,71.64
2024-04-13T04:09:10.641Z,71.76
2024-04-13T04:11:56.990Z,71.71
2024-04-13T04:14:43.360Z,71.71
2024-04-13T04:17:30.102Z,71.85
2024-04-13T04:20:16.674Z,71.93
2024-04-13T04:23:03.299Z,72.16
2024-04-13T04:25:49.314Z,71.97
2024-04-13T04:28:35.535Z,71.93
2024-04-13T04:31:21.567Z,72.29
2024-04-13T04:34:08.644Z,72.04
2024-04-13T04:36:56.111Z,72.19
2024-04-13T04:39:42.042Z,72.57
2024-04-13T04:42:30.055Z,72.53
2024-04-13T04:45:16.570Z,72.36
2024-04-13T04:48:02.486Z,72.51
2024-04-13T04:50:57.459Z,72.57
2024-04-13T04:53:43.580Z,72.76
2024-04-13T04:56:29.764Z,72.99
2024-04-13T04:59:15.735Z,72.90
2024-04-13T05:02:02.203Z,72.72
2024-04-13T05:04:48.938Z,72.90
2024-04-13T05:07:34.923Z,72.81
2024-04-13T05:10:21.206Z,73.13
2024-04-13T05:13:08.063Z,72.80
2024-04-13T05:15:54.209Z,73.06
2024-04-13T05:18:40.876Z,73.05
2024-04-13T05:21:27.835Z,73.34
2024-04-13T05:24:13.979Z,73.41
2024-04-13T05:27:00.386Z,72.79
2024-04-13T05:29:51.065Z,73.50
2024-04-13T05:32:37.727Z,74.04
2024-04-13T05:35:23.797Z,73.87
2024-04-13T05:38:09.673Z,73.38
2024-04-13T05:40:55.733Z,73.70
2024-04-13T05:43:42.014Z,73.75
2024-04-13T05:46:28.052Z,73.36
2024-04-13T05:49:14.400Z,73.31
2024-04-13T05:52:00.561Z,72.83
2024-04-13T05:54:46.932Z,72.65
2024-04-13T05:57:33.405Z,72.69
2024-04-13T06:00:20.123Z,72.65
2024-04-13T06:03:08.682Z,72.27
2024-04-13T06:05:54.936Z,71.80
2024-04-13T06:08:41.260Z,71.53
2024-04-13T06:11:27.697Z,71.49
2024-04-13T06:14:13.717Z,70.99
2024-04-13T06:16:59.935Z,70.16
2024-04-13T06:19:46.433Z,70.42
2024-04-13T06:22:32.766Z,70.04
2024-04-13T06:25:19.431Z,69.98
2024-04-13T06:28:05.630Z,70.15
2024-04-13T06:30:53.083Z,69.74
2024-04-13T06:33:39.436Z,69.59
2024-04-13T06:36:25.764Z,68.98
2024-04-13T06:39:15.769Z,68.86
2024-04-13T06:42:02.290Z,68.73
2024-04-13T06:44:48.176Z,68.36
2024-04-13T06:47:35.648Z,68.51
2024-04-13T06:50:22.249Z,68.00
2024-04-13T06:53:08.335Z,68.26
2024-04-13T06:55:54.434Z,67.48
2024-04-13T06:58:41.050Z,67.72
2024-04-13T07:01:28.753Z,67.60
2024-04-13T07:04:15.135Z,67.50
2024-04-13T07:07:01.540Z,67.53
2024-04-13T07:09:47.857Z,67.18
2024-04-13T07:12:34.384Z,67.08
2024-04-13T07:15:20.591Z,66.82
2024-04-13T07:18:09.970Z,66.26
2024-04-13T07:20:55.947Z,66.96
2024-04-13T07:23:42.235Z,66.74
2024-04-13T07:26:29.122Z,66.73
2024-04-13T07:29:15.181Z,66.61
2024-04-13T07:32:01.190Z,65.64
2024-04-13T07:34:47.138Z,65.34
2024-04-13T07:37:33.785Z,64.93
2024-04-13T07:40:19.804Z,64.26
2024-04-13T07:43:06.185Z,64.06
2024-04-13T07:45:53.325Z,64.23
2024-04-13T07:48:40.373Z,63.57
2024-04-13T07:51:26.730Z,63.53
2024-04-13T07:54:12.975Z,62.87
2024-04-13T07:56:59.451Z,62.90
2024-04-13T07:59:45.529Z,61.95
2024-04-13T08:02:31.961Z,61.52
2024-04-13T08:05:18.282Z,61.72
2024-04-13T08:08:04.293Z,61.13
2024-04-13T08:10:50.537Z,61.07
2024-04-13T08:13:36.748Z,61.21
2024-04-13T08:16:22.825Z,60.68
2024-04-13T08:19:09.638Z,61.18
2024-04-13T08:21:55.576Z,60.41
2024-04-13T08:24:41.485Z,60.12
2024-04-13T08:27:29.060Z,60.17
2024-04-13T08:30:16.581Z,60.24
2024-04-13T08:33:02.654Z,59.78
2024-04-13T08:35:48.982Z,59.84
2024-04-13T08:38:36.069Z,59.46
2024-04-13T08:41:37.397Z,59.50
2024-04-13T08:44:24.227Z,59.19
2024-04-13T08:47:12.287Z,58.79
2024-04-13T08:50:00.416Z,58.79
2024-04-13T08:52:47.531Z,58.66
2024-04-13T08:55:36.170Z,58.24
2024-04-13T08:58:23.465Z,58.31
2024-04-13T09:01:15.120Z,58.12
2024-04-13T09:04:02.895Z,57.72
2024-04-13T09:06:49.963Z,57.02
2024-04-13T09:09:36.538Z,57.59
2024-04-13T09:12:22.666Z,57.43
2024-04-13T09:15:09.247Z,56.82
2024-04-13T09:17:56.880Z,56.90
2024-04-13T09:20:44.256Z,56.76
2024-04-13T09:23:31.068Z,56.42
2024-04-13T09:26:17.189Z,56.36
2024-04-13T09:29:03.730Z,56.38
2024-04-13T09:31:50.489Z,56.18
2024-04-13T09:34:37.252Z,56.15
2024-04-13T09:37:23.415Z,56.08
2024-04-13T09:40:11.933Z,55.99
2024-04-13T09:43:00.139Z,56.00
2024-04-13T09:45:47.063Z,55.71
2024-04-13T09:48:33.602Z,55.28
2024-04-13T09:51:19.817Z,55.34
2024-04-13T09:54:05.994Z,54.95
2024-04-13T09:56:52.626Z,54.90
2024-04-13T09:59:41.470Z,54.65
2024-04-13T10:02:30.106Z,54.45
2024-04-13T10:05:16.013Z,54.32
2024-04-13T10:08:02.568Z,54.13
2024-04-13T10:10:51.845Z,53.66
2024-04-13T10:13:47.380Z,52.58
2024-04-13T10:16:34.315Z,52.70
2024-04-13T10:19:20.837Z,52.90
2024-04-13T10:22:15.308Z,53.40
2024-04-13T10:25:10.177Z,51.93
2024-04-13T10:28:13.385Z,51.70
2024-04-13T10:30:59.688Z,52.29
2024-04-13T10:33:55.122Z,52.69
2024-04-13T10:36:43.186Z,52.69
2024-04-13T10:39:29.510Z,51.72
2024-04-13T10:42:15.762Z,52.07
2024-04-13T10:45:04.147Z,52.27
2024-04-13T10:47:50.772Z,52.51
2024-04-13T10:50:37.412Z,51.86
2024-04-13T10:53:26.840Z,51.93
2024-04-13T10:56:13.102Z,51.87
2024-04-13T10:58:59.209Z,50.99
2024-04-13T11:01:45.599Z,50.77
2024-04-13T11:04:43.664Z,51.24
2024-04-13T11:07:29.744Z,50.92
2024-04-13T11:10:15.991Z,51.07
2024-04-13T11:13:03.817Z,51.49
2024-04-13T11:15:50.147Z,50.84
2024-04-13T11:18:36.602Z,50.89
2024-04-13T11:21:23.647Z,51.10
2024-04-13T11:24:10.531Z,48.58
2024-04-13T11:26:57.722Z,50.97
2024-04-13T11:29:43.765Z,49.52
2024-04-13T11:32:29.578Z,50.27
2024-04-13T11:35:16.124Z,50.80
2024-04-13T11:38:02.852Z,51.03
2024-04-13T11:40:51.968Z,50.53
2024-04-13T11:43:38.072Z,50.42
2024-04-13T11:46:25.832Z,50.14
2024-04-13T11:49:12.187Z,50.43
2024-04-13T11:51:59.033Z,49.78
2024-04-13T11:54:45.158Z,49.87
2024-04-13T11:57:31.284Z,49.76
2024-04-13T12:00:19.979Z,49.88
2024-04-13T12:03:06.261Z,49.61
2024-04-13T12:05:52.678Z,49.29
2024-04-13T12:08:38.851Z,50.20
2024-04-13T12:11:32.185Z,49.80
2024-04-13T12:14:18.684Z,49.39
2024-04-13T12:17:05.390Z,49.70
2024-04-13T12:19:52.005Z,49.90
2024-04-13T12:22:38.058Z,49.80
2024-04-13T12:25:24.369Z,49.28
2024-04-13T12:28:10.431Z,49.36
2024-04-13T12:30:56.930Z,49.60
2024-04-13T12:33:43.509Z,49.32
2024-04-13T12:36:29.541Z,49.63
2024-04-13T12:39:18.208Z,49.20
2024-04-13T12:42:05.156Z,49.11
2024-04-13T12:44:51.758Z,49.03
2024-04-13T12:47:39.263Z,48.66
2024-04-13T12:50:25.383Z,48.69
2024-04-13T12:53:11.230Z,48.60
2024-04-13T12:55:57.569Z,48.84
2024-04-13T12:58:43.504Z,48.12
2024-04-13T13:01:30.151Z,48.39
2024-04-13T13:04:16.382Z,48.36
2024-04-13T13:07:03.631Z,48.26
2024-04-13T13:09:49.735Z,47.83
2024-04-13T13:12:35.858Z,48.21
2024-04-13T13:15:21.914Z,48.56
2024-04-13T13:18:08.098Z,47.88
2024-04-13T13:20:54.373Z,47.58
2024-04-13T13:23:40.228Z,47.96
2024-04-13T13:26:26.777Z,48.02
2024-04-13T13:29:13.252Z,47.79
2024-04-13T13:31:59.095Z,47.78
2024-04-13T13:34:45.283Z,47.46
2024-04-13T13:37:32.896Z,47.00
2024-04-13T13:40:19.116Z,47.26
2024-04-13T13:43:06.484Z,47.14
2024-04-13T13:45:52.790Z,47.16
2024-04-13T13:48:39.880Z,46.83
2024-04-13T13:51:26.108Z,44.50
2024-04-13T13:54:12.330Z,47.34
2024-04-13T13:56:58.204Z,46.77
2024-04-13T13:59:44.693Z,46.86
2024-04-13T14:02:31.301Z,46.98
2024-04-13T14:05:17.671Z,46.65
2024-04-13T14:08:03.942Z,46.73
2024-04-13T14:10:50.087Z,46.79
2024-04-13T14:13:36.183Z,46.53
2024-04-13T14:16:22.338Z,45.93
2024-04-13T14:19:08.267Z,45.71
2024-04-13T14:21:54.156Z,46.17
2024-04-13T14:24:40.956Z,45.73
2024-04-13T14:27:26.958Z,45.77
2024-04-13T14:30:13.326Z,45.48
2024-04-13T14:32:59.455Z,45.09
2024-04-13T14:35:45.614Z,45.28
2024-04-13T14:38:31.778Z,45.24
2024-04-13T14:41:17.902Z,45.19
2024-04-13T14:44:04.485Z,45.46
2024-04-13T14:46:50.776Z,45.42
2024-04-13T14:49:36.901Z,45.04
2024-04-13T14:52:23.032Z,45.19
2024-04-13T14:55:11.177Z,45.38
2024-04-13T14:57:57.331Z,45.49
2024-04-13T15:00:43.571Z,44.99
2024-04-13T15:03:30.144Z,45.02
2024-04-13T15:06:16.404Z,44.95
2024-04-13T15:09:02.556Z,45.57
2024-04-13T15:11:49.561Z,45.18
2024-04-13T15:14:36.001Z,45.19
2024-04-13T15:17:22.284Z,45.04
2024-04-13T15:20:09.167Z,44.93
2024-04-13T15:22:55.275Z,45.38
2024-04-13T15:25:41.454Z,45.37
2024-04-13T15:28:27.595Z,45.19
2024-04-13T15:31:14.834Z,44.96
2024-04-13T15:34:01.809Z,44.88
2024-04-13T15:36:48.320Z,45.33
2024-04-13T15:39:34.647Z,45.52
2024-04-13T15:42:22.322Z,45.28
2024-04-13T15:45:10.191Z,45.63
2024-04-13T15:47:56.618Z,46.02
2024-04-13T15:50:42.927Z,45.61
2024-04-13T15:53:29.086Z,45.87
2024-04-13T15:56:15.385Z,45.46
2024-04-13T15:59:03.943Z,45.70
2024-04-13T16:01:50.377Z,45.68
2024-04-13T16:04:36.906Z,46.16
2024-04-13T16:07:23.180Z,46.46
2024-04-13T16:10:09.853Z,46.50
2024-04-13T16:12:55.786Z,46.65
2024-04-13T16:15:41.790Z,46.20
2024-04-13T16:18:27.844Z,46.69
2024-04-13T16:21:13.858Z,46.43
2024-04-13T16:23:59.757Z,46.77
2024-04-13T16:26:45.848Z,46.61
2024-04-13T16:29:32.663Z,46.56
2024-04-13T16:32:18.530Z,47.00
2024-04-13T16:35:05.301Z,46.64
2024-04-13T16:37:51.375Z,47.02
2024-04-13T16:40:37.289Z,47.35
2024-04-13T16:43:23.483Z,46.88
2024-04-13T16:46:09.631Z,47.05
2024-04-13T16:48:55.878Z,46.82
2024-04-13T16:51:43.133Z,47.07
2024-04-13T16:54:29.598Z,47.36
2024-04-13T16:57:16.177Z,47.06
2024-04-13T17:00:02.300Z,47.48
2024-04-13T17:02:49.612Z,47.54
2024-04-13T17:05:36.450Z,47.62
2024-04-13T17:08:26.675Z,47.77
2024-04-13T17:11:12.978Z,48.33
2024-04-13T17:13:59.123Z,48.18
2024-04-13T17:16:45.221Z,48.40
2024-04-13T17:19:31.184Z,48.31
2024-04-13T17:22:19.504Z,48.56
2024-04-13T17:25:05.801Z,48.66
2024-04-13T17:27:52.065Z,48.82
2024-04-13T17:30:38.434Z,49.04
2024-04-13T17:33:28.252Z,49.47
2024-04-13T17:36:15.743Z,49.51
2024-04-13T17:39:03.191Z,49.66
2024-04-13T17:41:49.137Z,49.85
2024-04-13T17:44:35.190Z,50.11
2024-04-13T17:47:21.305Z,50.16
2024-04-13T17:50:08.603Z,50.44
2024-04-13T17:52:54.398Z,50.65
2024-04-13T17:55:44.178Z,50.79
2024-04-13T17:58:30.473Z,50.92
2024-04-13T18:01:17.999Z,50.84
2024-04-13T18:04:04.490Z,51.20
2024-04-13T18:06:53.690Z,51.49
2024-04-13T18:09:39.763Z,51.92
2024-04-13T18:12:25.976Z,51.66
2024-04-13T18:15:12.425Z,52.20
2024-04-13T18:17:58.525Z,52.11
2024-04-13T18:20:45.133Z,52.56
2024-04-13T18:23:31.410Z,52.73
2024-04-13T18:26:19.766Z,53.36
2024-04-13T18:29:05.702Z,53.29
2024-04-13T18:31:51.735Z,53.22
2024-04-13T18:34:37.869Z,54.14
2024-04-13T18:37:24.035Z,54.22
2024-04-13T18:40:10.456Z,54.21
2024-04-13T18:42:58.378Z,54.54
2024-04-13T18:45:44.790Z,54.92
2024-04-13T18:48:31.231Z,55.08
2024-04-13T18:51:19.064Z,55.38
2024-04-13T18:54:05.691Z,55.65
2024-04-13T18:56:51.681Z,55.85
2024-04-13T18:59:38.068Z,56.01
2024-04-13T19:02:24.191Z,55.96
2024-04-13T19:05:10.846Z,56.44
2024-04-13T19:07:57.268Z,56.39
2024-04-13T19:10:43.443Z,56.89
2024-04-13T19:13:29.470Z,56.83
2024-04-13T19:16:15.410Z,57.12
2024-04-13T19:19:01.708Z,57.46
2024-04-13T19:21:48.090Z,57.74
2024-04-13T19:24:34.275Z,57.72
2024-04-13T19:27:20.917Z,57.98
2024-04-13T19:30:09.869Z,57.98
2024-04-13T19:32:56.150Z,58.38
2024-04-13T19:35:43.578Z,58.60
2024-04-13T19:38:29.794Z,58.98
2024-04-13T19:41:17.932Z,58.57
2024-04-13T19:44:03.972Z,59.31
2024-04-13T19:46:50.305Z,59.03
2024-04-13T19:49:37.374Z,59.32
2024-04-13T19:52:23.534Z,59.27
2024-04-13T19:55:09.686Z,59.61
2024-04-13T19:57:55.730Z,60.00
2024-04-13T20:00:43.505Z,60.23
2024-04-13T20:03:31.639Z,60.18
2024-04-13T20:06:17.967Z,60.74
2024-04-13T20:09:04.872Z,60.28
2024-04-13T20:11:50.840Z,61.20
2024-04-13T20:17:52.092Z,61.00
2024-04-13T20:20:41.105Z,61.67
2024-04-13T20:23:27.012Z,61.65
2024-04-13T20:26:13.186Z,62.02
2024-04-13T20:28:59.470Z,62.19
2024-04-13T20:31:45.644Z,62.20
2024-04-13T20:34:31.662Z,62.22
2024-04-13T20:37:17.875Z,62.50
2024-04-13T20:40:03.878Z,62.73
2024-04-13T20:42:50.155Z,62.77
2024-04-13T20:45:40.928Z,62.92
2024-04-13T20:48:27.218Z,62.66
2024-04-13T20:51:13.492Z,62.80
2024-04-13T20:53:59.830Z,63.39
2024-04-13T20:56:45.620Z,63.33
2024-04-13T20:59:31.893Z,63.41
2024-04-13T21:02:18.079Z,63.47
2024-04-13T21:05:04.398Z,63.52
2024-04-13T21:07:50.635Z,63.76
2024-04-13T21:10:38.944Z,64.07
2024-04-13T21:13:26.224Z,63.98
2024-04-13T21:16:12.227Z,64.15
2024-04-13T21:18:58.458Z,64.12
2024-04-13T21:21:44.497Z,64.52
2024-04-13T21:24:32.000Z,64.34
2024-04-13T21:27:18.080Z,65.97
2024-04-13T21:30:04.339Z,64.77
2024-04-13T21:32:50.990Z,65.06
2024-04-13T21:35:36.980Z,64.96
2024-04-13T21:38:22.965Z,65.07
2024-04-13T21:41:09.858Z,65.49
2024-04-13T21:43:57.511Z,65.43
2024-04-13T21:46:48.770Z,65.57
2024-04-13T21:49:35.400Z,65.51
2024-04-13T21:52:21.424Z,65.34
2024-04-13T21:55:07.722Z,66.11
2024-04-13T21:57:53.811Z,65.60
2024-04-13T22:00:40.295Z,65.75
2024-04-13T22:03:26.936Z,65.91
2024-04-13T22:06:13.963Z,66.47
2024-04-13T22:09:05.542Z,66.04
2024-04-13T22:11:52.340Z,66.11
2024-04-13T22:14:38.903Z,66.35
2024-04-13T22:17:25.066Z,66.42
2024-04-13T22:20:12.977Z,66.45
2024-04-13T22:22:59.021Z,66.71
2024-04-13T22:25:45.995Z,66.76
2024-04-13T22:28:31.822Z,66.89
2024-04-13T22:31:17.728Z,66.76
2024-04-13T22:34:04.737Z,66.72
2024-04-13T22:36:50.998Z,67.04
2024-04-13T22:39:37.355Z,66.91
2024-04-13T22:42:26.111Z,66.99
2024-04-13T22:45:12.541Z,66.85
2024-04-13T22:47:59.100Z,66.97
2024-04-13T22:50:45.699Z,66.93
2024-04-13T22:53:31.674Z,67.27
2024-04-13T22:56:17.861Z,67.65
2024-04-13T22:59:03.941Z,67.43
2024-04-13T23:01:50.292Z,67.49
2024-04-13T23:04:37.851Z,67.68
2024-04-13T23:07:25.443Z,67.42
2024-04-13T23:10:13.165Z,67.45
2024-04-13T23:13:00.984Z,67.25
2024-04-13T23:15:48.704Z,68.78
2024-04-13T23:18:35.392Z,67.60
2024-04-13T23:21:21.723Z,67.90
2024-04-13T23:24:07.762Z,67.93
2024-04-13T23:26:54.306Z,67.69
2024-04-13T23:29:40.666Z,67.90
2024-04-13T23:32:27.265Z,67.88
2024-04-13T23:35:13.469Z,68.14
2024-04-13T23:37:59.335Z,68.27
2024-04-13T23:40:45.737Z,68.10
2024-04-13T23:43:31.812Z,68.05
2024-04-13T23:46:18.035Z,68.15
2024-04-13T23:49:04.481Z,68.43
2024-04-13T23:51:50.959Z,68.68
2024-04-13T23:54:37.303Z,69.19
2024-04-13T23:57:23.639Z,69.13
